Time;durP1;ratioP1;P1;durP2;ratioP2;P2;SDS_P1;SDS_P2;PMS_P1;PMS_P2;Temp;Humidity;BMP_temperature;BMP_pressure;BME280_temperature;BME280_humidity;BME280_pressure;Samples;Min_cycle;Max_cycle;Signal;HPM_P1;HPM_P2
2021/08/04 00:00:26;;;;;;;3.13;1.20;;;;;;;;;;5022289;28;20036;-79
2021/08/04 00:02:51;;;;;;;2.67;1.10;;;;;;;;;;5037564;28;20032;-79
2021/08/04 00:05:16;;;;;;;3.23;1.07;;;;;;;;;;5002106;28;20129;-79
2021/08/04 00:07:42;;;;;;;3.00;1.20;;;;;;;;;;5001879;28;20112;-79
2021/08/04 00:10:07;;;;;;;3.33;1.23;;;;;;;;;;5002990;28;20033;-79
2021/08/04 00:12:32;;;;;;;2.73;1.00;;;;;;;;;;5018816;28;20029;-79
2021/08/04 00:14:58;;;;;;;2.87;1.10;;;;;;;;;;5003353;28;20499;-79
2021/08/04 00:17:23;;;;;;;2.63;1.10;;;;;;;;;;5003138;28;20045;-79
2021/08/04 00:19:48;;;;;;;3.83;1.20;;;;;;;;;;5002323;28;20038;-79
2021/08/04 00:22:14;;;;;;;2.17;1.00;;;;;;;;;;5003256;28;20045;-79
2021/08/04 00:24:39;;;;;;;3.57;1.30;;;;;;;;;;5001284;28;20441;-79
2021/08/04 00:27:05;;;;;;;3.53;1.20;;;;;;;;;;5019018;28;20084;-79
2021/08/04 00:29:30;;;;;;;2.83;1.10;;;;;;;;;;5002888;28;20045;-79
2021/08/04 00:31:55;;;;;;;2.63;0.90;;;;;;;;;;5001991;28;20030;-79
2021/08/04 00:34:21;;;;;;;2.67;0.90;;;;;;;;;;5002027;28;20079;-79
2021/08/04 00:36:46;;;;;;;3.37;1.23;;;;;;;;;;5018696;28;20034;-79
2021/08/04 00:39:11;;;;;;;2.40;1.10;;;;;;;;;;5002124;28;20065;-79
2021/08/04 00:41:40;;;;;;;2.70;1.10;;;;;;;;;;5018448;28;20050;-80
2021/08/04 00:44:05;;;;;;;2.88;1.10;;;;;;;;;;5001609;28;20117;-79
2021/08/04 00:46:31;;;;;;;2.50;1.10;;;;;;;;;;5001906;28;20026;-79
2021/08/04 00:48:56;;;;;;;3.60;1.20;;;;;;;;;;5001475;28;20437;-79
2021/08/04 00:51:21;;;;;;;3.27;1.17;;;;;;;;;;5001574;28;20062;-79
2021/08/04 00:53:47;;;;;;;4.57;1.30;;;;;;;;;;5019901;28;20053;-79
2021/08/04 00:56:12;;;;;;;2.10;0.87;;;;;;;;;;5017842;28;20112;-79
2021/08/04 00:58:39;;;;;;;2.73;1.10;;;;;;;;;;5018068;28;20037;-80
2021/08/04 01:01:17;;;;;;;2.78;1.13;;;;;;;;;;5001593;28;20029;-79
2021/08/04 01:03:44;;;;;;;3.90;1.30;;;;;;;;;;5018837;28;20022;-79
2021/08/04 01:06:16;;;;;;;2.13;1.02;;;;;;;;;;5001818;28;20026;-80
2021/08/04 01:08:43;;;;;;;2.75;1.00;;;;;;;;;;5001776;28;20036;-79
2021/08/04 01:11:09;;;;;;;3.38;1.08;;;;;;;;;;5001771;28;20374;-79
2021/08/04 01:13:41;;;;;;;5.03;1.27;;;;;;;;;;5000909;28;20140;-79
2021/08/04 01:16:19;;;;;;;2.63;1.05;;;;;;;;;;5001012;28;20481;-79
2021/08/04 01:18:47;;;;;;;2.45;1.00;;;;;;;;;;5001071;28;20547;-79
2021/08/04 01:21:12;;;;;;;3.60;1.10;;;;;;;;;;5000821;28;20125;-79
2021/08/04 01:23:50;;;;;;;3.70;1.10;;;;;;;;;;5001441;28;20036;-79
2021/08/04 01:26:34;;;;;;;3.17;1.08;;;;;;;;;;5001810;28;20026;-79
2021/08/04 01:29:00;;;;;;;4.32;1.15;;;;;;;;;;5009314;28;20030;-79
2021/08/04 01:31:26;;;;;;;2.43;1.13;;;;;;;;;;5000245;28;20038;-79
2021/08/04 01:33:52;;;;;;;;;;;;;;;;;;5018097;28;20462;-79
2021/08/04 01:36:17;;;;;;;3.42;1.10;;;;;;;;;;5017060;28;19913;-79
2021/08/04 01:38:43;;;;;;;4.33;1.13;;;;;;;;;;5001839;28;20492;-79
2021/08/04 01:41:08;;;;;;;3.63;1.37;;;;;;;;;;5000961;28;20093;-79
2021/08/04 01:43:34;;;;;;;2.53;1.02;;;;;;;;;;4999722;28;20073;-79
2021/08/04 01:46:00;;;;;;;2.50;1.00;;;;;;;;;;5001030;28;20030;-79
2021/08/04 01:48:25;;;;;;;3.78;1.13;;;;;;;;;;5000532;28;20053;-79
2021/08/04 01:50:52;;;;;;;3.37;1.13;;;;;;;;;;5001366;28;20045;-79
2021/08/04 01:53:17;;;;;;;;;;;;;;;;;;5000496;28;20037;-79
2021/08/04 01:55:43;;;;;;;3.25;1.13;;;;;;;;;;5016716;28;19913;-79
2021/08/04 01:58:09;;;;;;;4.55;1.35;;;;;;;;;;5000552;28;20028;-79
2021/08/04 02:00:34;;;;;;;3.03;1.10;;;;;;;;;;5000421;28;20105;-79
2021/08/04 02:02:59;;;;;;;2.60;1.20;;;;;;;;;;5016950;28;20112;-79
2021/08/04 02:05:25;;;;;;;3.80;1.20;;;;;;;;;;5016909;28;20056;-79
2021/08/04 02:08:16;;;;;;;3.90;1.20;;;;;;;;;;5000539;28;20084;-79
2021/08/04 02:10:57;;;;;;;2.38;1.00;;;;;;;;;;4997662;28;20117;-79
2021/08/04 02:13:44;;;;;;;3.58;1.15;;;;;;;;;;5012050;28;20026;-79
2021/08/04 02:16:17;;;;;;;3.85;1.15;;;;;;;;;;5002242;28;20029;-79
2021/08/04 02:18:44;;;;;;;3.03;1.00;;;;;;;;;;5016297;28;20469;-79
2021/08/04 02:21:10;;;;;;;2.80;1.02;;;;;;;;;;5017026;28;20028;-80
2021/08/04 02:23:36;;;;;;;3.90;1.23;;;;;;;;;;5000528;28;20061;-79
2021/08/04 02:26:12;;;;;;;2.92;1.00;;;;;;;;;;5000828;28;20054;-79
2021/08/04 02:28:38;;;;;;;3.00;1.20;;;;;;;;;;5001381;28;20021;-79
2021/08/04 02:31:05;;;;;;;4.50;1.40;;;;;;;;;;5000727;28;20566;-79
2021/08/04 02:33:30;;;;;;;3.33;1.10;;;;;;;;;;5016695;28;20061;-79
2021/08/04 02:35:56;;;;;;;2.17;1.07;;;;;;;;;;5000836;28;20063;-80
2021/08/04 02:38:21;;;;;;;2.77;1.20;;;;;;;;;;5001499;28;20084;-79
2021/08/04 02:40:47;;;;;;;3.53;1.10;;;;;;;;;;5001265;28;20100;-79
2021/08/04 02:43:12;;;;;;;2.80;1.00;;;;;;;;;;5002348;28;20116;-79
2021/08/04 02:45:37;;;;;;;2.80;1.13;;;;;;;;;;5003714;28;20112;-79
2021/08/04 02:48:03;;;;;;;5.07;1.40;;;;;;;;;;5003935;28;20057;-79
2021/08/04 02:50:28;;;;;;;3.53;1.17;;;;;;;;;;5021667;28;20030;-79
2021/08/04 02:52:54;;;;;;;3.13;1.10;;;;;;;;;;5005397;28;20064;-79
2021/08/04 02:55:19;;;;;;;3.47;1.20;;;;;;;;;;5006055;28;20022;-79
2021/08/04 02:57:44;;;;;;;2.87;1.03;;;;;;;;;;5005527;28;20053;-79
2021/08/04 03:00:10;;;;;;;3.30;1.40;;;;;;;;;;5006185;28;20048;-79
2021/08/04 03:02:35;;;;;;;2.70;1.10;;;;;;;;;;5006284;28;20038;-78
2021/08/04 03:05:01;;;;;;;3.33;1.30;;;;;;;;;;5005291;28;20040;-78
2021/08/04 03:07:26;;;;;;;3.50;1.33;;;;;;;;;;5011228;28;20041;-78
2021/08/04 03:09:52;;;;;;;2.50;1.07;;;;;;;;;;5027474;28;20038;-78
2021/08/04 03:12:17;;;;;;;3.67;1.20;;;;;;;;;;5006645;28;20036;-79
2021/08/04 03:14:42;;;;;;;3.20;1.10;;;;;;;;;;5005793;28;20029;-79
2021/08/04 03:17:08;;;;;;;3.80;1.20;;;;;;;;;;5005270;28;20068;-79
2021/08/04 03:19:33;;;;;;;3.47;1.13;;;;;;;;;;5003933;28;20048;-78
2021/08/04 03:21:58;;;;;;;5.67;1.30;;;;;;;;;;5037487;28;20108;-79
2021/08/04 03:24:24;;;;;;;4.37;1.40;;;;;;;;;;5004733;28;20052;-78
2021/08/04 03:26:49;;;;;;;3.13;1.40;;;;;;;;;;5022959;28;20042;-78
2021/08/04 03:29:14;;;;;;;3.23;1.43;;;;;;;;;;5004680;28;20033;-78
2021/08/04 03:31:40;;;;;;;3.60;1.37;;;;;;;;;;5020829;28;20030;-79
2021/08/04 03:34:05;;;;;;;4.17;1.83;;;;;;;;;;5023070;28;20053;-79
2021/08/04 03:36:30;;;;;;;3.47;1.30;;;;;;;;;;5005969;28;20080;-79
2021/08/04 03:38:56;;;;;;;3.20;1.23;;;;;;;;;;5004291;28;20123;-79
2021/08/04 03:41:21;;;;;;;2.50;1.10;;;;;;;;;;5004104;28;20109;-78
2021/08/04 03:43:46;;;;;;;2.30;1.20;;;;;;;;;;5004357;28;20033;-78
2021/08/04 03:46:12;;;;;;;2.20;1.23;;;;;;;;;;5003936;28;20113;-78
2021/08/04 03:48:37;;;;;;;3.50;1.40;;;;;;;;;;5003723;28;20030;-78
2021/08/04 03:51:03;;;;;;;2.30;1.27;;;;;;;;;;5003623;28;20061;-78
2021/08/04 03:53:28;;;;;;;2.88;1.20;;;;;;;;;;5002990;28;20492;-79
2021/08/04 03:55:54;;;;;;;2.30;1.10;;;;;;;;;;5003297;28;20029;-79
2021/08/04 03:58:19;;;;;;;2.00;1.10;;;;;;;;;;5020240;28;20057;-79
2021/08/04 04:00:45;;;;;;;1.90;1.03;;;;;;;;;;5004640;28;20059;-79
2021/08/04 04:03:11;;;;;;;2.65;1.20;;;;;;;;;;5005785;28;20026;-78
2021/08/04 04:05:36;;;;;;;2.27;1.10;;;;;;;;;;5004839;28;20041;-78
2021/08/04 04:08:02;;;;;;;1.83;1.10;;;;;;;;;;5021070;28;20065;-79
2021/08/04 04:10:27;;;;;;;2.73;1.30;;;;;;;;;;5020096;28;20045;-79
2021/08/04 04:12:52;;;;;;;2.17;1.10;;;;;;;;;;5020621;28;20034;-78
2021/08/04 04:15:18;;;;;;;2.90;1.30;;;;;;;;;;5004251;28;20040;-79
2021/08/04 04:17:43;;;;;;;2.73;1.20;;;;;;;;;;5003873;28;20045;-78
2021/08/04 04:20:09;;;;;;;2.80;1.20;;;;;;;;;;5004774;28;20034;-78
2021/08/04 04:22:34;;;;;;;2.30;1.20;;;;;;;;;;5021671;28;20030;-78
2021/08/04 04:24:59;;;;;;;2.37;1.20;;;;;;;;;;5022234;28;20060;-78
2021/08/04 04:27:25;;;;;;;2.67;1.10;;;;;;;;;;5005064;28;20060;-78
2021/08/04 04:29:50;;;;;;;3.23;1.30;;;;;;;;;;5023270;28;20057;-78
2021/08/04 04:32:15;;;;;;;2.97;1.40;;;;;;;;;;5007058;28;20079;-78
2021/08/04 04:34:41;;;;;;;2.43;1.10;;;;;;;;;;5005872;28;20022;-78
2021/08/04 04:37:06;;;;;;;3.00;1.20;;;;;;;;;;5023104;28;20034;-78
2021/08/04 04:39:32;;;;;;;2.80;1.33;;;;;;;;;;5005605;28;20488;-78
2021/08/04 04:41:57;;;;;;;2.80;1.15;;;;;;;;;;5004259;28;20061;-78
2021/08/04 04:44:23;;;;;;;2.73;1.20;;;;;;;;;;5002613;28;20060;-78
2021/08/04 04:46:48;;;;;;;2.30;1.37;;;;;;;;;;5003541;28;20040;-78
2021/08/04 04:49:13;;;;;;;2.93;1.27;;;;;;;;;;5002554;28;20077;-78
2021/08/04 04:51:38;;;;;;;2.60;1.23;;;;;;;;;;5003153;28;20068;-78
2021/08/04 04:54:04;;;;;;;3.00;1.33;;;;;;;;;;5002148;28;20037;-78
2021/08/04 04:56:29;;;;;;;2.47;1.03;;;;;;;;;;5004792;28;20033;-78
2021/08/04 04:58:54;;;;;;;3.07;1.27;;;;;;;;;;5002932;28;20529;-77
2021/08/04 05:01:20;;;;;;;3.23;1.23;;;;;;;;;;4999170;28;20137;-78
2021/08/04 05:03:46;;;;;;;3.25;1.38;;;;;;;;;;4998975;28;20030;-78
2021/08/04 05:06:11;;;;;;;3.53;1.40;;;;;;;;;;4998678;28;20061;-78
2021/08/04 05:08:37;;;;;;;2.37;1.20;;;;;;;;;;4998455;28;20029;-78
2021/08/04 05:11:02;;;;;;;3.90;1.60;;;;;;;;;;4998854;28;20465;-78
2021/08/04 05:13:27;;;;;;;3.63;1.30;;;;;;;;;;4999097;28;20025;-78
2021/08/04 05:15:53;;;;;;;2.43;1.10;;;;;;;;;;4999267;28;20025;-78
2021/08/04 05:18:18;;;;;;;2.80;1.13;;;;;;;;;;4999143;28;20465;-78
2021/08/04 05:20:43;;;;;;;2.23;1.00;;;;;;;;;;5014836;28;20038;-78
2021/08/04 05:23:09;;;;;;;3.10;1.20;;;;;;;;;;4998784;28;20116;-78
2021/08/04 05:25:36;;;;;;;3.10;1.30;;;;;;;;;;4997457;28;20064;-78
2021/08/04 05:28:01;;;;;;;2.78;1.10;;;;;;;;;;5025803;28;20040;-78
2021/08/04 05:30:26;;;;;;;3.37;1.00;;;;;;;;;;5035912;28;20512;-78
2021/08/04 05:32:52;;;;;;;2.97;1.10;;;;;;;;;;5018736;28;20430;-78
2021/08/04 05:35:17;;;;;;;3.30;1.37;;;;;;;;;;5016002;28;20056;-78
2021/08/04 05:37:42;;;;;;;3.00;1.07;;;;;;;;;;5032305;28;20097;-79
2021/08/04 05:40:08;;;;;;;3.37;1.20;;;;;;;;;;4999461;28;20052;-78
2021/08/04 05:42:33;;;;;;;3.73;1.27;;;;;;;;;;5015874;28;20026;-78
2021/08/04 05:44:59;;;;;;;2.70;1.10;;;;;;;;;;5031014;28;20372;-78
2021/08/04 05:47:24;;;;;;;3.83;1.20;;;;;;;;;;5051408;28;20053;-78
2021/08/04 05:49:49;;;;;;;3.90;1.17;;;;;;;;;;5018318;28;20473;-78
2021/08/04 05:52:15;;;;;;;3.50;1.20;;;;;;;;;;5034421;28;20126;-78
2021/08/04 05:54:40;;;;;;;3.57;1.20;;;;;;;;;;5034754;28;20021;-78
2021/08/04 05:57:05;;;;;;;3.17;1.20;;;;;;;;;;5051532;28;20034;-78
2021/08/04 05:59:31;;;;;;;3.77;1.10;;;;;;;;;;5018320;28;20049;-78
2021/08/04 06:01:56;;;;;;;4.33;1.40;;;;;;;;;;5034904;28;20067;-78
2021/08/04 06:04:21;;;;;;;2.93;1.20;;;;;;;;;;5035508;28;20053;-78
2021/08/04 06:06:48;;;;;;;2.53;1.10;;;;;;;;;;5051873;28;20456;-79
2021/08/04 06:09:13;;;;;;;2.88;1.13;;;;;;;;;;5018384;28;20029;-78
2021/08/04 06:11:38;;;;;;;2.23;1.00;;;;;;;;;;5051654;28;20035;-78
2021/08/04 06:14:04;;;;;;;2.87;1.10;;;;;;;;;;5050909;28;20044;-78
2021/08/04 06:16:29;;;;;;;3.33;1.20;;;;;;;;;;5051599;28;20097;-77
2021/08/04 06:18:54;;;;;;;4.03;1.40;;;;;;;;;;5055103;28;20447;-78
2021/08/04 06:21:20;;;;;;;3.83;1.33;;;;;;;;;;5040324;28;20028;-78
2021/08/04 06:23:48;;;;;;;3.70;1.13;;;;;;;;;;5019275;28;20478;-78
2021/08/04 06:26:14;;;;;;;3.45;1.40;;;;;;;;;;5018510;28;20029;-78
2021/08/04 06:28:39;;;;;;;3.00;0.82;;;;;;;;;;5019098;28;20469;-78
2021/08/04 06:31:05;;;;;;;4.33;1.17;;;;;;;;;;5002681;28;20051;-78
2021/08/04 06:33:30;;;;;;;4.37;1.23;;;;;;;;;;5018936;28;20103;-78
2021/08/04 06:35:55;;;;;;;2.37;1.03;;;;;;;;;;5001849;28;20612;-78
2021/08/04 06:38:21;;;;;;;3.77;1.13;;;;;;;;;;5002000;28;20050;-77
2021/08/04 06:40:46;;;;;;;3.37;1.23;;;;;;;;;;5017753;28;20061;-78
2021/08/04 06:43:11;;;;;;;3.47;1.33;;;;;;;;;;5001743;28;20095;-78
2021/08/04 06:45:37;;;;;;;3.70;1.10;;;;;;;;;;5001690;28;20105;-78
2021/08/04 06:48:02;;;;;;;4.10;1.37;;;;;;;;;;5035487;28;20516;-78
2021/08/04 06:50:29;;;;;;;4.27;1.13;;;;;;;;;;5019724;28;20396;-78
2021/08/04 06:52:54;;;;;;;4.90;1.40;;;;;;;;;;5001756;28;20520;-78
2021/08/04 06:55:20;;;;;;;3.10;1.20;;;;;;;;;;5017909;28;20029;-78
2021/08/04 06:57:45;;;;;;;2.73;1.03;;;;;;;;;;5017882;28;20029;-78
2021/08/04 07:00:11;;;;;;;4.40;1.10;;;;;;;;;;5001115;28;20110;-78
2021/08/04 07:02:36;;;;;;;3.67;1.15;;;;;;;;;;5017814;28;20108;-78
2021/08/04 07:05:01;;;;;;;3.50;1.37;;;;;;;;;;5001522;28;20501;-78
2021/08/04 07:07:27;;;;;;;4.13;1.40;;;;;;;;;;5033507;28;20438;-78
2021/08/04 07:09:52;;;;;;;4.20;1.33;;;;;;;;;;5018541;28;20111;-78
2021/08/04 07:12:18;;;;;;;4.43;1.37;;;;;;;;;;5011542;28;20452;-78
2021/08/04 07:14:43;;;;;;;3.70;1.33;;;;;;;;;;5020847;28;20114;-78
2021/08/04 07:17:08;;;;;;;3.50;1.10;;;;;;;;;;5019289;28;20066;-78
2021/08/04 07:19:34;;;;;;;4.23;1.30;;;;;;;;;;5001222;28;20022;-78
2021/08/04 07:21:59;;;;;;;3.90;1.30;;;;;;;;;;5016581;28;20030;-78
2021/08/04 07:24:25;;;;;;;3.67;1.20;;;;;;;;;;5033088;28;20018;-78
2021/08/04 07:26:50;;;;;;;4.67;1.10;;;;;;;;;;5017339;28;20092;-78
2021/08/04 07:29:15;;;;;;;5.50;1.30;;;;;;;;;;5033636;28;20049;-78
2021/08/04 07:31:41;;;;;;;3.03;1.17;;;;;;;;;;5021071;28;20061;-78
2021/08/04 07:34:06;;;;;;;3.33;1.27;;;;;;;;;;5053308;28;20104;-78
2021/08/04 07:36:32;;;;;;;3.50;1.40;;;;;;;;;;5053896;28;20028;-78
2021/08/04 07:38:57;;;;;;;4.23;1.47;;;;;;;;;;5020966;28;20388;-78
2021/08/04 07:41:22;;;;;;;3.43;1.30;;;;;;;;;;5053877;28;20156;-78
2021/08/04 07:43:49;;;;;;;3.87;1.30;;;;;;;;;;5036507;28;20103;-78
2021/08/04 07:46:15;;;;;;;3.97;1.40;;;;;;;;;;5037420;28;20025;-78
2021/08/04 07:48:40;;;;;;;2.97;1.17;;;;;;;;;;5037877;28;20025;-78
2021/08/04 07:51:05;;;;;;;4.10;1.40;;;;;;;;;;5037038;28;20635;-78
2021/08/04 07:53:31;;;;;;;3.43;1.40;;;;;;;;;;5036667;28;20029;-78
2021/08/04 07:55:56;;;;;;;4.07;1.40;;;;;;;;;;5036575;28;20393;-78
2021/08/04 07:58:22;;;;;;;3.10;1.17;;;;;;;;;;5036519;28;20064;-78
2021/08/04 08:00:47;;;;;;;2.67;1.03;;;;;;;;;;5037733;28;20264;-78
2021/08/04 08:03:12;;;;;;;3.13;1.20;;;;;;;;;;5053195;28;20119;-78
2021/08/04 08:05:38;;;;;;;3.83;1.17;;;;;;;;;;5037782;28;20029;-78
2021/08/04 08:08:04;;;;;;;3.83;1.10;;;;;;;;;;5017029;28;20088;-78
2021/08/04 08:10:30;;;;;;;3.30;1.25;;;;;;;;;;5033671;28;20491;-78
2021/08/04 08:12:56;;;;;;;4.55;1.30;;;;;;;;;;5017107;28;20029;-78
2021/08/04 08:15:21;;;;;;;3.80;1.27;;;;;;;;;;5033379;28;20441;-78
2021/08/04 08:17:46;;;;;;;2.53;1.13;;;;;;;;;;5033239;28;20037;-78
2021/08/04 08:20:12;;;;;;;2.70;1.10;;;;;;;;;;5016521;28;20049;-79
2021/08/04 08:22:37;;;;;;;3.90;1.20;;;;;;;;;;5016787;28;20026;-78
2021/08/04 08:25:03;;;;;;;3.83;1.33;;;;;;;;;;5016372;28;20125;-78
2021/08/04 08:27:28;;;;;;;3.97;1.17;;;;;;;;;;5016722;28;20032;-78
2021/08/04 08:29:53;;;;;;;3.57;1.10;;;;;;;;;;5017112;28;20046;-79
2021/08/04 08:32:19;;;;;;;5.43;1.30;;;;;;;;;;5016209;28;20436;-78
2021/08/04 08:34:44;;;;;;;3.23;1.10;;;;;;;;;;5015720;28;20457;-78
2021/08/04 08:37:10;;;;;;;3.10;1.30;;;;;;;;;;5032601;28;20026;-78
2021/08/04 08:39:35;;;;;;;4.23;1.30;;;;;;;;;;5015872;28;20064;-78
2021/08/04 08:42:00;;;;;;;3.87;1.23;;;;;;;;;;5032517;28;20085;-78
2021/08/04 08:44:26;;;;;;;3.23;1.27;;;;;;;;;;5016322;28;20026;-78
2021/08/04 08:46:51;;;;;;;4.80;1.30;;;;;;;;;;5015686;28;20033;-78
2021/08/04 08:51:44;;;;;;;3.15;1.10;;;;;;;;;;4959482;29;20051;-78
2021/08/04 08:54:09;;;;;;;2.33;1.00;;;;;;;;;;4960237;28;20046;-78
2021/08/04 08:56:35;;;;;;;3.90;1.30;;;;;;;;;;4927005;29;20030;-78
2021/08/04 08:59:00;;;;;;;3.87;1.30;;;;;;;;;;4918283;29;20062;-78
2021/08/04 09:01:52;;;;;;;3.73;1.20;;;;;;;;;;4945197;29;20051;-78
2021/08/04 09:04:17;;;;;;;3.45;1.10;;;;;;;;;;4960890;29;20407;-78
2021/08/04 09:06:48;;;;;;;3.30;1.20;;;;;;;;;;4942432;29;20059;-78
2021/08/04 09:09:19;;;;;;;4.70;1.40;;;;;;;;;;4976525;28;20024;-78
2021/08/04 09:12:09;;;;;;;4.90;1.50;;;;;;;;;;4931889;29;20394;-78
2021/08/04 09:14:35;;;;;;;3.80;1.33;;;;;;;;;;4942886;29;20394;-78
2021/08/04 09:17:04;;;;;;;3.10;1.30;;;;;;;;;;4940067;29;20031;-78
2021/08/04 09:19:29;;;;;;;3.05;1.27;;;;;;;;;;4940082;29;20549;-78
2021/08/04 09:22:13;;;;;;;4.30;1.25;;;;;;;;;;4941425;29;20035;-78
2021/08/04 09:25:01;;;;;;;3.78;1.50;;;;;;;;;;4954909;29;20034;-78
2021/08/04 09:27:51;;;;;;;3.58;1.42;;;;;;;;;;4977784;28;20055;-78
2021/08/04 09:30:32;;;;;;;3.88;1.20;;;;;;;;;;4945365;29;20371;-78
2021/08/04 09:33:14;;;;;;;3.08;1.13;;;;;;;;;;4930382;29;20422;-78
2021/08/04 09:35:50;;;;;;;3.22;1.38;;;;;;;;;;4959012;29;20119;-78
2021/08/04 09:38:15;;;;;;;3.17;1.10;;;;;;;;;;4915276;29;20036;-78
2021/08/04 09:40:41;;;;;;;3.97;1.60;;;;;;;;;;4941465;29;20276;-78
2021/08/04 09:43:06;;;;;;;2.77;1.30;;;;;;;;;;4960163;29;20027;-78
2021/08/04 09:45:42;;;;;;;3.13;1.33;;;;;;;;;;4944768;29;20028;-79
2021/08/04 09:48:11;;;;;;;2.78;1.20;;;;;;;;;;4944882;29;20509;-78
2021/08/04 09:50:56;;;;;;;4.82;1.50;;;;;;;;;;4960820;29;20046;-79
2021/08/04 09:53:33;;;;;;;2.80;1.20;;;;;;;;;;4946961;29;20027;-79
2021/08/04 09:56:18;;;;;;;4.53;1.40;;;;;;;;;;4933328;29;20031;-79
2021/08/04 09:58:47;;;;;;;3.25;1.20;;;;;;;;;;4947246;29;20480;-78
2021/08/04 10:01:22;;;;;;;3.85;1.48;;;;;;;;;;4961609;29;20019;-78
2021/08/04 10:04:05;;;;;;;5.13;1.48;;;;;;;;;;4961585;29;20023;-78
2021/08/04 10:06:30;;;;;;;4.55;1.30;;;;;;;;;;4962421;28;20027;-78
2021/08/04 10:08:57;;;;;;;4.97;1.60;;;;;;;;;;4960298;29;20035;-80
2021/08/04 10:11:23;;;;;;;3.88;1.15;;;;;;;;;;4944571;29;20050;-78
2021/08/04 10:13:48;;;;;;;4.35;1.55;;;;;;;;;;4943178;29;20479;-77
2021/08/04 10:16:14;;;;;;;4.47;1.50;;;;;;;;;;4927378;29;20031;-78
2021/08/04 10:18:40;;;;;;;3.73;1.30;;;;;;;;;;4944661;29;20123;-78
2021/08/04 10:21:11;;;;;;;3.53;1.20;;;;;;;;;;4943466;29;20038;-78
2021/08/04 10:23:37;;;;;;;3.58;1.55;;;;;;;;;;4944227;29;20406;-78
2021/08/04 10:26:02;;;;;;;3.38;1.40;;;;;;;;;;4945717;29;20031;-78
2021/08/04 10:28:28;;;;;;;4.70;1.23;;;;;;;;;;4961794;29;20149;-78
2021/08/04 10:30:53;;;;;;;3.43;1.33;;;;;;;;;;4962776;28;20027;-78
2021/08/04 10:33:18;;;;;;;3.10;1.33;;;;;;;;;;4944728;29;20278;-78
2021/08/04 10:35:46;;;;;;;3.07;1.30;;;;;;;;;;4945463;29;20026;-78
2021/08/04 10:38:14;;;;;;;3.75;1.33;;;;;;;;;;4929433;29;20027;-78
2021/08/04 10:40:40;;;;;;;4.25;1.40;;;;;;;;;;4929700;29;20422;-78
2021/08/04 10:43:05;;;;;;;3.67;1.20;;;;;;;;;;4944507;29;20034;-77
2021/08/04 10:45:31;;;;;;;3.10;1.27;;;;;;;;;;4942043;29;20474;-77
2021/08/04 10:48:23;;;;;;;2.78;1.27;;;;;;;;;;4942175;29;20035;-77
2021/08/04 10:51:15;;;;;;;3.25;1.20;;;;;;;;;;4958060;29;20035;-77
2021/08/04 10:54:01;;;;;;;4.10;1.33;;;;;;;;;;4941807;29;20659;-77
2021/08/04 10:56:48;;;;;;;3.45;1.20;;;;;;;;;;4947274;29;20054;-77
2021/08/04 10:59:13;;;;;;;3.17;1.10;;;;;;;;;;4948513;29;20126;-77
2021/08/04 11:01:42;;;;;;;3.17;1.30;;;;;;;;;;4957727;29;20549;-77
2021/08/04 11:04:08;;;;;;;3.00;1.13;;;;;;;;;;4957370;28;20031;-77
2021/08/04 11:06:34;;;;;;;3.47;1.30;;;;;;;;;;4941518;29;20058;-78
2021/08/04 11:09:11;;;;;;;4.80;1.50;;;;;;;;;;4926036;29;20154;-77
2021/08/04 11:11:52;;;;;;;2.53;1.00;;;;;;;;;;4958685;29;20023;-77
2021/08/04 11:14:46;;;;;;;3.85;1.30;;;;;;;;;;4972765;28;20042;-78
2021/08/04 11:17:19;;;;;;;4.68;1.58;;;;;;;;;;4958770;28;20398;-77
2021/08/04 11:19:56;;;;;;;3.47;1.30;;;;;;;;;;4941959;29;20026;-77
2021/08/04 11:22:22;;;;;;;4.22;1.27;;;;;;;;;;4957345;29;20031;-77
2021/08/04 11:24:58;;;;;;;4.10;1.48;;;;;;;;;;4958336;29;20027;-78
2021/08/04 11:27:25;;;;;;;3.03;1.35;;;;;;;;;;4942701;29;20394;-78
2021/08/04 11:29:52;;;;;;;3.60;1.52;;;;;;;;;;4942878;29;20035;-78
2021/08/04 11:32:20;;;;;;;5.22;1.38;;;;;;;;;;4958865;29;20372;-78
2021/08/04 11:34:46;;;;;;;3.97;1.27;;;;;;;;;;4927683;29;20039;-77
2021/08/04 11:37:11;;;;;;;3.97;1.40;;;;;;;;;;4926221;29;20114;-77
2021/08/04 11:39:50;;;;;;;3.43;1.27;;;;;;;;;;4926220;29;20038;-77
2021/08/04 11:42:15;;;;;;;3.15;1.20;;;;;;;;;;4943763;29;20027;-78
2021/08/04 11:44:41;;;;;;;3.87;1.43;;;;;;;;;;4957954;29;20447;-77
2021/08/04 11:47:09;;;;;;;3.93;1.30;;;;;;;;;;4958163;29;20050;-78
2021/08/04 11:49:36;;;;;;;3.58;1.38;;;;;;;;;;4929223;28;20031;-78
2021/08/04 11:52:03;;;;;;;4.13;1.45;;;;;;;;;;4944148;28;20026;-77
2021/08/04 11:54:36;;;;;;;3.85;1.25;;;;;;;;;;4976596;28;20026;-78
2021/08/04 11:57:03;;;;;;;3.83;1.50;;;;;;;;;;4961207;28;20034;-77
2021/08/04 11:59:28;;;;;;;4.13;1.50;;;;;;;;;;4959946;28;20030;-77
2021/08/04 12:02:01;;;;;;;4.07;1.60;;;;;;;;;;4945064;28;20019;-78
2021/08/04 12:04:27;;;;;;;5.22;1.60;;;;;;;;;;4960918;28;20046;-78
2021/08/04 12:07:11;;;;;;;3.80;1.50;;;;;;;;;;4962338;28;20023;-78
2021/08/04 12:09:38;;;;;;;3.25;1.20;;;;;;;;;;4945155;28;20101;-77
2021/08/04 12:12:12;;;;;;;2.60;1.15;;;;;;;;;;4946017;28;20038;-78
2021/08/04 12:14:37;;;;;;;3.35;1.35;;;;;;;;;;4926673;29;20499;-78
2021/08/04 12:17:03;;;;;;;3.70;1.20;;;;;;;;;;4953274;28;20073;-77
2021/08/04 12:19:29;;;;;;;3.23;1.30;;;;;;;;;;4960465;28;20031;-78
2021/08/04 12:21:55;;;;;;;4.57;1.55;;;;;;;;;;4975335;28;20034;-77
2021/08/04 12:24:20;;;;;;;3.03;1.30;;;;;;;;;;4959821;28;20564;-77
2021/08/04 12:26:46;;;;;;;4.80;1.40;;;;;;;;;;4959512;28;20054;-77
2021/08/04 12:29:25;;;;;;;3.70;1.42;;;;;;;;;;4959956;28;20018;-77
2021/08/04 12:32:03;;;;;;;3.00;1.30;;;;;;;;;;4959144;28;20035;-77
2021/08/04 12:34:29;;;;;;;3.45;1.33;;;;;;;;;;4943448;28;20038;-77
2021/08/04 12:36:55;;;;;;;3.63;1.23;;;;;;;;;;4959412;28;20027;-77
2021/08/04 12:39:22;;;;;;;3.97;1.40;;;;;;;;;;4956741;28;20042;-77
2021/08/04 12:41:47;;;;;;;3.42;1.33;;;;;;;;;;4944404;28;20026;-77
2021/08/04 12:44:16;;;;;;;3.57;1.40;;;;;;;;;;4960051;28;20100;-77
2021/08/04 12:46:41;;;;;;;2.83;1.20;;;;;;;;;;4959356;28;20027;-77
2021/08/04 12:49:15;;;;;;;2.83;1.20;;;;;;;;;;4958809;28;20081;-77
2021/08/04 12:51:40;;;;;;;3.78;1.30;;;;;;;;;;4959929;28;20040;-77
2021/08/04 12:54:06;;;;;;;3.10;1.30;;;;;;;;;;4974716;28;20460;-77
2021/08/04 12:56:36;;;;;;;3.45;1.27;;;;;;;;;;4959791;28;20018;-78
2021/08/04 12:59:10;;;;;;;3.42;1.35;;;;;;;;;;4961647;28;20042;-78
2021/08/04 13:01:37;;;;;;;3.08;1.33;;;;;;;;;;4977406;28;20092;-79
2021/08/04 13:04:21;;;;;;;3.60;1.30;;;;;;;;;;4961153;28;20054;-77
2021/08/04 13:06:52;;;;;;;4.57;1.25;;;;;;;;;;4957438;28;20089;-78
2021/08/04 13:09:18;;;;;;;3.10;1.30;;;;;;;;;;4956775;29;20023;-78
2021/08/04 13:11:44;;;;;;;3.22;1.38;;;;;;;;;;4957227;28;20066;-78
2021/08/04 13:14:10;;;;;;;3.67;1.30;;;;;;;;;;4942489;28;20480;-79
2021/08/04 13:16:36;;;;;;;3.22;1.13;;;;;;;;;;4942253;28;20015;-79
2021/08/04 13:19:02;;;;;;;3.55;1.30;;;;;;;;;;4957628;28;20086;-79
2021/08/04 13:21:28;;;;;;;3.33;1.15;;;;;;;;;;4957404;28;20034;-78
2021/08/04 13:23:53;;;;;;;2.93;1.30;;;;;;;;;;4973553;28;20855;-78
2021/08/04 13:26:21;;;;;;;3.57;1.30;;;;;;;;;;4957729;28;20118;-78
2021/08/04 13:28:47;;;;;;;3.13;1.40;;;;;;;;;;4957486;28;20050;-78
2021/08/04 13:31:16;;;;;;;3.50;1.50;;;;;;;;;;4972983;28;20057;-78
2021/08/04 13:33:42;;;;;;;3.60;1.42;;;;;;;;;;4957956;28;20046;-78
2021/08/04 13:36:07;;;;;;;3.90;1.50;;;;;;;;;;4957519;28;20101;-78
2021/08/04 13:38:32;;;;;;;3.90;1.33;;;;;;;;;;4957708;28;20038;-79
2021/08/04 13:40:58;;;;;;;2.23;1.17;;;;;;;;;;4941515;28;20027;-79
2021/08/04 13:43:24;;;;;;;2.80;1.33;;;;;;;;;;4957422;28;20470;-80
2021/08/04 13:45:49;;;;;;;4.28;1.45;;;;;;;;;;4957294;28;20019;-80
2021/08/04 13:48:14;;;;;;;3.23;1.40;;;;;;;;;;4952797;28;20556;-79
2021/08/04 13:50:40;;;;;;;3.83;1.50;;;;;;;;;;4957653;28;20110;-80
2021/08/04 13:53:06;;;;;;;2.55;1.20;;;;;;;;;;4942264;28;20049;-81
2021/08/04 13:55:33;;;;;;;3.20;1.30;;;;;;;;;;4943761;28;20504;-81
2021/08/04 13:57:58;;;;;;;2.92;1.38;;;;;;;;;;4959042;28;20398;-78
2021/08/04 14:00:25;;;;;;;4.23;1.70;;;;;;;;;;4959798;28;20026;-78
2021/08/04 14:02:51;;;;;;;3.35;1.25;;;;;;;;;;4973817;28;20048;-77
2021/08/04 14:05:16;;;;;;;3.27;1.30;;;;;;;;;;4957172;28;20478;-77
2021/08/04 14:07:42;;;;;;;3.47;1.33;;;;;;;;;;4972877;28;20289;-76
2021/08/04 14:10:09;;;;;;;2.87;1.20;;;;;;;;;;4956594;28;20033;-76
2021/08/04 14:12:35;;;;;;;3.85;1.48;;;;;;;;;;4956812;28;20475;-77
2021/08/04 14:15:01;;;;;;;2.60;1.30;;;;;;;;;;4956712;28;20023;-77
2021/08/04 14:17:26;;;;;;;3.40;1.43;;;;;;;;;;4956811;28;20102;-78
2021/08/04 14:19:51;;;;;;;3.77;1.20;;;;;;;;;;4956874;28;20114;-76
2021/08/04 14:22:18;;;;;;;3.43;1.40;;;;;;;;;;4956603;28;20030;-76
2021/08/04 14:24:44;;;;;;;2.83;1.25;;;;;;;;;;4956920;28;20038;-76
2021/08/04 14:27:09;;;;;;;3.20;1.40;;;;;;;;;;4956755;28;20034;-76
2021/08/04 14:29:34;;;;;;;3.90;1.40;;;;;;;;;;4974075;28;20157;-76
2021/08/04 14:32:00;;;;;;;3.10;1.20;;;;;;;;;;4972698;28;20110;-77
2021/08/04 14:34:25;;;;;;;3.80;1.67;;;;;;;;;;4956711;28;20058;-77
2021/08/04 14:36:50;;;;;;;3.87;1.50;;;;;;;;;;4956632;28;20042;-76
2021/08/04 14:39:16;;;;;;;3.33;1.40;;;;;;;;;;4975111;28;20106;-76
2021/08/04 14:41:41;;;;;;;3.43;1.17;;;;;;;;;;4944083;28;20398;-77
2021/08/04 14:44:06;;;;;;;3.10;1.40;;;;;;;;;;4977219;28;20141;-76
2021/08/04 14:46:34;;;;;;;3.80;1.30;;;;;;;;;;4960049;28;20109;-77